createdAt,value
2023-01-17T00:00:47.815Z,74.10
2023-01-17T00:03:23.855Z,74.18
2023-01-17T00:06:09.276Z,73.92
2023-01-17T00:08:49.682Z,73.74
2023-01-17T00:11:16.481Z,73.68
2023-01-17T00:13:46.041Z,73.72
2023-01-17T00:16:12.583Z,74.07
2023-01-17T00:18:39.109Z,73.99
2023-01-17T00:21:20.908Z,74.01
2023-01-17T00:24:01.017Z,73.94
2023-01-17T00:26:29.756Z,73.87
2023-01-17T00:28:56.141Z,73.82
2023-01-17T00:31:22.596Z,74.13
2023-01-17T00:33:49.134Z,73.83
2023-01-17T00:36:15.535Z,73.71
2023-01-17T00:38:42.227Z,73.90
2023-01-17T00:41:12.851Z,74.02
2023-01-17T00:43:52.237Z,73.75
2023-01-17T00:46:32.439Z,73.79
2023-01-17T00:49:12.557Z,73.80
2023-01-17T00:51:52.761Z,73.93
2023-01-17T00:54:32.861Z,73.71
2023-01-17T00:57:13.088Z,73.64
2023-01-17T00:59:53.194Z,73.15
2023-01-17T01:02:33.729Z,72.74
2023-01-17T01:05:13.590Z,71.76
2023-01-17T01:07:53.747Z,71.78
2023-01-17T01:10:33.839Z,71.79
2023-01-17T01:13:14.053Z,71.64
2023-01-17T01:15:54.177Z,71.87
2023-01-17T01:18:34.362Z,71.35
2023-01-17T01:21:14.450Z,71.15
2023-01-17T01:23:54.709Z,71.16
2023-01-17T01:26:34.821Z,71.46
2023-01-17T01:29:15.016Z,71.83
2023-01-17T01:31:55.105Z,70.70
2023-01-17T01:34:21.842Z,71.37
2023-01-17T01:36:48.475Z,71.30
2023-01-17T01:39:15.235Z,71.49
2023-01-17T01:41:41.932Z,71.60
2023-01-17T01:44:43.023Z,71.63
2023-01-17T01:47:26.252Z,72.00
2023-01-17T01:49:53.100Z,72.09
2023-01-17T01:52:23.189Z,71.54
2023-01-17T01:54:58.563Z,71.97
2023-01-17T01:57:30.270Z,72.03
2023-01-17T02:00:06.980Z,72.25
2023-01-17T02:02:38.753Z,72.17
2023-01-17T02:05:06.114Z,72.56
2023-01-17T02:07:40.944Z,72.45
2023-01-17T02:10:08.939Z,72.34
2023-01-17T02:12:35.664Z,72.70
2023-01-17T02:15:05.493Z,72.47
2023-01-17T02:17:53.696Z,72.87
2023-01-17T02:20:49.884Z,73.10
2023-01-17T02:23:46.196Z,73.19
2023-01-17T02:26:38.669Z,73.30
2023-01-17T02:29:32.012Z,73.34
2023-01-17T02:32:14.315Z,73.37
2023-01-17T02:34:51.019Z,73.45
2023-01-17T02:37:28.739Z,73.38
2023-01-17T02:40:12.170Z,73.21
2023-01-17T02:42:45.432Z,73.23
2023-01-17T02:45:19.111Z,73.46
2023-01-17T02:47:45.986Z,73.24
2023-01-17T02:50:17.492Z,73.60
2023-01-17T02:53:21.156Z,73.70
2023-01-17T02:56:04.401Z,73.96
2023-01-17T02:59:10.627Z,74.04
2023-01-17T03:01:57.978Z,74.32
2023-01-17T03:04:35.088Z,74.45
2023-01-17T03:07:07.216Z,74.78
2023-01-17T03:09:33.798Z,74.82
2023-01-17T03:12:00.589Z,74.69
2023-01-17T03:14:31.126Z,74.76
2023-01-17T03:16:57.868Z,74.52
2023-01-17T03:19:24.401Z,74.58
2023-01-17T03:21:50.833Z,73.66
2023-01-17T03:24:17.372Z,73.76
2023-01-17T03:26:44.425Z,73.45
2023-01-17T03:29:15.784Z,73.03
2023-01-17T03:31:42.291Z,73.01
2023-01-17T03:34:08.772Z,73.30
2023-01-17T03:36:35.265Z,72.91
2023-01-17T03:39:02.250Z,72.77
2023-01-17T03:41:29.340Z,72.42
2023-01-17T03:43:55.855Z,72.37
2023-01-17T03:46:25.183Z,72.33
2023-01-17T03:48:51.832Z,72.15
2023-01-17T03:51:18.384Z,72.31
2023-01-17T03:53:46.428Z,72.41
2023-01-17T03:56:14.278Z,72.38
2023-01-17T03:58:41.535Z,72.57
2023-01-17T04:01:08.601Z,72.51
2023-01-17T04:03:35.290Z,72.63
2023-01-17T04:06:01.869Z,72.67
2023-01-17T04:08:28.691Z,72.87
2023-01-17T04:10:55.467Z,72.65
2023-01-17T04:13:22.166Z,72.88
2023-01-17T04:15:50.383Z,72.58
2023-01-17T04:18:19.018Z,72.76
2023-01-17T04:20:47.619Z,72.44
2023-01-17T04:23:14.193Z,72.18
2023-01-17T04:25:40.775Z,72.71
2023-01-17T04:28:07.393Z,72.62
2023-01-17T04:30:33.991Z,72.48
2023-01-17T04:33:00.662Z,72.12
2023-01-17T04:35:29.862Z,72.13
2023-01-17T04:37:56.408Z,71.79
2023-01-17T04:40:23.214Z,71.58
2023-01-17T04:42:50.609Z,71.66
2023-01-17T04:45:17.145Z,71.61
2023-01-17T04:47:44.072Z,71.66
2023-01-17T04:50:11.242Z,71.77
2023-01-17T04:52:37.848Z,71.89
2023-01-17T04:55:05.732Z,71.80
2023-01-17T04:57:32.422Z,71.94
2023-01-17T04:59:59.062Z,71.27
2023-01-17T05:02:25.904Z,71.61
2023-01-17T05:04:52.481Z,71.07
2023-01-17T05:07:19.089Z,69.71
2023-01-17T05:09:46.990Z,69.53
2023-01-17T05:12:13.519Z,69.39
2023-01-17T05:14:40.028Z,69.39
2023-01-17T05:17:07.212Z,69.41
2023-01-17T05:19:34.088Z,69.71
2023-01-17T05:22:03.241Z,70.22
2023-01-17T05:24:31.520Z,70.28
2023-01-17T05:27:02.262Z,70.55
2023-01-17T05:29:29.542Z,70.44
2023-01-17T05:31:56.470Z,70.28
2023-01-17T05:34:23.314Z,70.65
2023-01-17T05:36:50.228Z,70.75
2023-01-17T05:39:17.234Z,70.71
2023-01-17T05:41:43.963Z,71.02
2023-01-17T05:44:10.734Z,71.29
2023-01-17T05:46:37.586Z,71.41
2023-01-17T05:49:04.618Z,72.01
2023-01-17T05:51:31.143Z,71.92
2023-01-17T05:54:13.353Z,72.45
2023-01-17T05:57:02.540Z,72.41
2023-01-17T06:00:01.691Z,72.84
2023-01-17T06:02:36.353Z,73.07
2023-01-17T06:05:41.744Z,73.90
2023-01-17T06:09:01.734Z,74.36
2023-01-17T06:11:56.839Z,74.48
2023-01-17T06:14:25.095Z,74.88
2023-01-17T06:17:29.723Z,74.95
2023-01-17T06:20:04.907Z,75.13
2023-01-17T06:22:57.081Z,75.08
2023-01-17T06:25:50.799Z,74.73
2023-01-17T06:32:39.769Z,74.44
2023-01-17T06:35:22.721Z,74.17
2023-01-17T06:37:57.840Z,73.81
2023-01-17T06:40:25.834Z,74.00
2023-01-17T06:42:52.509Z,74.12
2023-01-17T06:45:20.005Z,74.11
2023-01-17T06:47:46.557Z,73.83
2023-01-17T06:50:14.945Z,73.75
2023-01-17T06:52:42.614Z,73.85
2023-01-17T06:55:10.197Z,73.84
2023-01-17T06:57:46.287Z,73.82
2023-01-17T07:00:55.305Z,73.89
2023-01-17T07:04:18.678Z,74.02
2023-01-17T07:07:08.091Z,73.78
2023-01-17T07:10:32.888Z,73.75
2023-01-17T07:16:28.874Z,73.74
2023-01-17T07:19:35.856Z,73.81
2023-01-17T07:22:12.745Z,73.86
2023-01-17T07:25:20.870Z,73.46
2023-01-17T07:27:57.034Z,73.36
2023-01-17T07:30:26.322Z,73.48
2023-01-17T07:33:19.372Z,73.25
2023-01-17T07:35:55.119Z,73.35
2023-01-17T07:38:22.071Z,72.95
2023-01-17T07:40:56.964Z,72.78
2023-01-17T07:43:29.642Z,72.44
2023-01-17T07:49:43.195Z,72.40
2023-01-17T07:52:17.415Z,72.64
2023-01-17T07:54:57.369Z,72.49
2023-01-17T07:59:01.101Z,72.58
2023-01-17T08:04:55.417Z,72.54
2023-01-17T08:28:26.441Z,71.83
2023-01-17T08:31:39.074Z,70.79
2023-01-17T08:37:55.587Z,69.74
2023-01-17T08:40:49.821Z,69.53
2023-01-17T08:43:34.853Z,69.68
2023-01-17T08:46:02.977Z,71.01
2023-01-17T08:53:15.697Z,66.15
2023-01-17T09:00:10.193Z,65.68
2023-01-17T09:21:23.950Z,64.71
2023-01-17T09:24:06.692Z,64.25
2023-01-17T09:30:13.306Z,64.10
2023-01-17T09:32:44.778Z,64.31
2023-01-17T09:35:14.989Z,64.28
2023-01-17T09:37:43.060Z,64.11
2023-01-17T09:40:21.000Z,64.14
2023-01-17T09:42:58.270Z,64.05
2023-01-17T09:45:30.129Z,64.29
2023-01-17T09:48:08.579Z,63.81
2023-01-17T09:51:42.319Z,63.30
2023-01-17T09:54:24.503Z,62.93
2023-01-17T09:57:52.150Z,63.21
2023-01-17T10:01:15.650Z,63.86
2023-01-17T10:04:10.872Z,63.55
2023-01-17T10:07:02.322Z,63.19
2023-01-17T10:09:49.481Z,62.89
2023-01-17T10:12:51.014Z,62.20
2023-01-17T10:15:49.439Z,61.43
2023-01-17T10:19:01.732Z,60.80
2023-01-17T10:21:49.798Z,59.45
2023-01-17T10:24:41.036Z,59.74
2023-01-17T10:27:21.089Z,58.60
2023-01-17T10:29:51.226Z,58.21
2023-01-17T10:32:42.662Z,58.76
2023-01-17T10:35:20.889Z,58.71
2023-01-17T10:37:57.266Z,57.66
2023-01-17T10:40:50.164Z,57.81
2023-01-17T10:43:28.297Z,57.66
2023-01-17T10:45:58.028Z,57.63
2023-01-17T10:48:56.682Z,56.05
2023-01-17T10:52:00.550Z,54.19
2023-01-17T10:54:51.565Z,53.95
2023-01-17T10:57:25.467Z,53.47
2023-01-17T10:59:58.921Z,51.50
2023-01-17T11:02:33.353Z,51.42
2023-01-17T11:05:11.415Z,51.73
2023-01-17T11:07:40.812Z,51.25
2023-01-17T11:10:36.565Z,50.35
2023-01-17T11:13:20.450Z,49.94
2023-01-17T11:15:53.223Z,50.43
2023-01-17T11:18:22.299Z,50.54
2023-01-17T11:20:50.674Z,49.39
2023-01-17T11:23:24.075Z,49.14
2023-01-17T11:25:58.081Z,48.37
2023-01-17T11:28:30.815Z,47.82
2023-01-17T11:31:05.094Z,48.09
2023-01-17T11:33:48.671Z,46.93
2023-01-17T11:36:23.407Z,45.96
2023-01-17T11:39:04.455Z,45.91
2023-01-17T11:41:38.573Z,44.38
2023-01-17T11:44:22.169Z,44.13
2023-01-17T11:47:14.926Z,43.35
2023-01-17T11:49:45.688Z,41.73
2023-01-17T11:52:25.188Z,40.91
2023-01-17T11:54:55.402Z,41.98
2023-01-17T11:57:29.176Z,41.76
2023-01-17T12:00:19.875Z,40.50
2023-01-17T12:03:19.374Z,41.85
2023-01-17T12:06:01.304Z,42.04
2023-01-17T12:08:51.598Z,41.03
2023-01-17T12:12:09.437Z,41.00
2023-01-17T12:14:59.871Z,41.00
2023-01-17T12:22:04.456Z,40.89
2023-01-17T12:25:34.545Z,39.20
2023-01-17T12:28:43.544Z,38.58
2023-01-17T12:31:35.161Z,38.63
2023-01-17T12:34:31.729Z,39.14
2023-01-17T12:37:29.329Z,37.67
2023-01-17T12:40:05.106Z,38.19
2023-01-17T12:42:38.565Z,37.46
2023-01-17T12:45:13.673Z,39.19
2023-01-17T12:47:47.225Z,37.32
2023-01-17T12:50:26.705Z,35.84
2023-01-17T12:53:13.311Z,34.83
2023-01-17T12:55:53.821Z,33.21
2023-01-17T12:58:25.690Z,32.86
2023-01-17T13:01:03.063Z,32.83
2023-01-17T13:03:52.866Z,32.68
2023-01-17T13:06:30.209Z,32.54
2023-01-17T13:09:03.698Z,31.49
2023-01-17T13:11:46.591Z,32.07
2023-01-17T13:14:14.593Z,32.88
2023-01-17T13:16:50.443Z,31.38
2023-01-17T13:19:45.209Z,30.87
2023-01-17T13:22:18.621Z,30.92
2023-01-17T13:25:04.835Z,31.74
2023-01-17T13:27:58.368Z,31.18
2023-01-17T13:30:43.388Z,30.34
2023-01-17T13:33:47.782Z,29.23
2023-01-17T13:36:38.493Z,28.70
2023-01-17T13:39:30.067Z,28.12
2023-01-17T13:42:11.905Z,28.45
2023-01-17T13:44:39.806Z,28.88
2023-01-17T13:47:47.618Z,28.90
2023-01-17T13:50:28.320Z,29.15
2023-01-17T13:52:58.290Z,29.27
2023-01-17T13:55:46.027Z,29.55
2023-01-17T13:58:30.326Z,29.64
2023-01-17T14:00:58.387Z,29.38
2023-01-17T14:03:59.535Z,29.49
2023-01-17T14:06:41.151Z,28.95
2023-01-17T14:09:18.718Z,29.04
2023-01-17T14:12:04.110Z,29.57
2023-01-17T14:14:44.475Z,30.36
2023-01-17T14:17:35.047Z,31.76
2023-01-17T14:20:29.391Z,32.84
2023-01-17T14:23:02.344Z,34.08
2023-01-17T14:25:41.106Z,35.30
2023-01-17T14:28:24.531Z,36.73
2023-01-17T14:30:56.483Z,38.25
2023-01-17T14:33:34.776Z,39.63
2023-01-17T14:36:19.574Z,40.00
2023-01-17T14:38:48.626Z,41.08
2023-01-17T14:41:26.429Z,41.59
2023-01-17T14:44:01.413Z,42.58
2023-01-17T14:46:33.029Z,43.07
2023-01-17T14:49:07.055Z,44.69
2023-01-17T14:51:37.437Z,45.37
2023-01-17T14:54:22.075Z,46.35
2023-01-17T14:56:50.275Z,47.37
2023-01-17T14:59:22.382Z,47.67
2023-01-17T15:02:06.599Z,48.75
2023-01-17T15:04:39.761Z,50.01
2023-01-17T15:07:16.782Z,52.22
2023-01-17T15:09:47.029Z,55.31
2023-01-17T15:12:16.000Z,55.92
2023-01-17T15:14:46.650Z,55.37
2023-01-17T15:17:23.494Z,58.40
2023-01-17T15:20:18.104Z,59.54
2023-01-17T15:22:46.680Z,59.22
2023-01-17T15:25:19.252Z,59.74
2023-01-17T15:34:39.380Z,60.98
2023-01-17T15:37:29.813Z,63.02
2023-01-17T15:40:08.022Z,63.48
2023-01-17T15:42:40.561Z,64.94
2023-01-17T15:45:16.326Z,62.78
2023-01-17T15:47:46.945Z,64.68
2023-01-17T15:50:30.426Z,64.52
2023-01-17T15:53:03.189Z,65.72
2023-01-17T16:00:56.793Z,67.81
2023-01-17T16:04:19.238Z,68.73
2023-01-17T16:14:53.529Z,68.57
2023-01-17T16:17:34.572Z,68.99
2023-01-17T16:20:02.911Z,68.92
2023-01-17T16:22:35.300Z,67.92
2023-01-17T16:25:26.521Z,66.96
2023-01-17T16:28:08.071Z,68.69
2023-01-17T16:30:40.733Z,68.33
2023-01-17T16:33:12.718Z,67.91
2023-01-17T16:35:51.277Z,68.65
2023-01-17T16:38:20.799Z,68.17
2023-01-17T16:40:57.761Z,68.46
2023-01-17T16:43:26.526Z,68.54
2023-01-17T16:45:56.485Z,68.99
2023-01-17T16:48:25.217Z,68.21
2023-01-17T16:50:56.065Z,68.40
2023-01-17T16:53:26.932Z,70.02
2023-01-17T16:55:58.448Z,69.74
2023-01-17T16:58:27.126Z,70.15
2023-01-17T17:01:25.266Z,69.88
2023-01-17T17:04:06.901Z,69.76
2023-01-17T17:06:41.435Z,69.02
2023-01-17T17:09:12.002Z,68.85
2023-01-17T17:12:06.942Z,68.49
2023-01-17T17:14:42.126Z,69.22
2023-01-17T17:17:10.618Z,68.55
2023-01-17T17:19:39.032Z,68.26
2023-01-17T17:22:07.211Z,68.10
2023-01-17T17:24:38.344Z,68.56
2023-01-17T17:27:11.630Z,68.72
2023-01-17T17:29:54.014Z,68.69
2023-01-17T17:32:22.752Z,68.56
2023-01-17T17:34:51.022Z,68.22
2023-01-17T17:37:19.207Z,67.94
2023-01-17T17:40:13.720Z,67.66
2023-01-17T17:42:53.296Z,68.81
2023-01-17T17:45:22.659Z,68.93
2023-01-17T17:48:01.151Z,68.94
2023-01-17T17:50:29.324Z,69.42
2023-01-17T17:53:03.765Z,69.27
2023-01-17T17:55:41.839Z,69.24
2023-01-17T17:58:09.764Z,69.04
2023-01-17T18:00:53.572Z,68.93
2023-01-17T18:03:25.513Z,68.73
2023-01-17T18:05:53.949Z,69.00
2023-01-17T18:08:22.788Z,68.97
2023-01-17T18:11:00.383Z,69.22
2023-01-17T18:13:39.140Z,69.03
2023-01-17T18:16:12.761Z,69.24
2023-01-17T18:18:44.197Z,69.04
2023-01-17T18:21:23.721Z,69.30
2023-01-17T18:23:56.689Z,69.46
2023-01-17T18:26:28.348Z,69.34
2023-01-17T18:28:58.365Z,69.52
2023-01-17T18:31:27.957Z,69.15
2023-01-17T18:33:59.124Z,69.49
2023-01-17T18:36:31.413Z,69.90
2023-01-17T18:39:16.815Z,70.49
2023-01-17T18:41:45.891Z,70.98
2023-01-17T18:44:13.885Z,71.34
2023-01-17T18:46:43.184Z,70.90
2023-01-17T18:49:12.675Z,71.68
2023-01-17T18:51:41.396Z,71.74
2023-01-17T18:54:10.453Z,71.99
2023-01-17T18:56:38.492Z,72.31
2023-01-17T18:59:07.005Z,72.23
2023-01-17T19:01:36.562Z,72.33
2023-01-17T19:04:05.705Z,71.95
2023-01-17T19:06:37.223Z,72.24
2023-01-17T19:09:07.480Z,72.46
2023-01-17T19:11:36.617Z,72.00
2023-01-17T19:14:05.877Z,71.94
2023-01-17T19:16:39.328Z,72.61
2023-01-17T19:19:10.742Z,72.85
2023-01-17T19:22:20.669Z,73.62
2023-01-17T19:25:56.226Z,73.66
2023-01-17T19:33:37.996Z,73.60
2023-01-17T19:36:33.979Z,73.96
2023-01-17T19:39:57.405Z,73.59
2023-01-17T19:43:34.329Z,74.22
2023-01-17T19:47:04.063Z,74.18
2023-01-17T19:50:40.647Z,73.83
2023-01-17T19:53:49.875Z,74.81
2023-01-17T19:57:01.419Z,75.93
2023-01-17T20:00:46.423Z,75.24
2023-01-17T20:04:15.782Z,76.77
2023-01-17T20:07:46.977Z,76.75
2023-01-17T20:11:14.366Z,77.34
2023-01-17T20:15:05.272Z,77.28
2023-01-17T20:18:43.047Z,76.85
2023-01-17T20:22:11.565Z,77.16
2023-01-17T20:30:20.117Z,77.22
2023-01-17T20:33:54.993Z,77.36
2023-01-17T20:37:52.789Z,77.38
2023-01-17T20:41:20.974Z,77.82
2023-01-17T20:44:59.977Z,78.05
2023-01-17T20:48:10.137Z,78.32
2023-01-17T20:51:33.054Z,78.95
2023-01-17T20:54:55.035Z,80.80
2023-01-17T20:58:34.001Z,80.11
2023-01-17T21:02:05.198Z,79.87
2023-01-17T21:05:40.226Z,81.25
2023-01-17T21:09:05.958Z,80.90
2023-01-17T21:12:54.626Z,81.35
2023-01-17T21:16:38.088Z,81.55
2023-01-17T21:20:30.068Z,81.30
2023-01-17T21:24:21.109Z,81.73
2023-01-17T21:28:04.924Z,81.16
2023-01-17T21:31:36.054Z,82.70
2023-01-17T21:35:12.388Z,81.96
2023-01-17T21:38:43.175Z,81.74
2023-01-17T21:41:44.860Z,82.31
2023-01-17T21:45:41.639Z,83.06
2023-01-17T21:49:09.754Z,82.46
2023-01-17T21:52:20.278Z,81.73
2023-01-17T21:55:49.047Z,81.53
2023-01-17T21:58:57.945Z,81.84
2023-01-17T22:01:52.874Z,81.88
2023-01-17T22:05:13.003Z,81.25
2023-01-17T22:08:58.893Z,81.77
2023-01-17T22:12:29.532Z,81.66
2023-01-17T22:15:57.686Z,81.78
2023-01-17T22:19:00.690Z,82.07
2023-01-17T22:22:22.528Z,82.12
2023-01-17T22:25:00.549Z,82.56
2023-01-17T22:27:52.120Z,82.82
2023-01-17T22:31:01.870Z,83.00
2023-01-17T22:34:24.085Z,83.76
2023-01-17T22:37:29.386Z,83.28
2023-01-17T22:40:43.510Z,83.03
2023-01-17T22:44:17.832Z,82.97
2023-01-17T22:47:32.473Z,83.94
2023-01-17T22:50:24.020Z,83.60
2023-01-17T22:53:22.525Z,83.19
2023-01-17T22:56:31.559Z,84.63
2023-01-17T22:59:14.025Z,84.30
2023-01-17T23:02:42.918Z,84.44
2023-01-17T23:05:47.589Z,84.39
2023-01-17T23:08:39.196Z,84.18
2023-01-17T23:11:49.990Z,85.18
2023-01-17T23:15:35.844Z,85.26
2023-01-17T23:18:36.131Z,84.89
2023-01-17T23:21:44.973Z,84.93
2023-01-17T23:24:55.875Z,85.06
2023-01-17T23:27:56.728Z,85.04
2023-01-17T23:30:54.763Z,84.95
2023-01-17T23:33:23.796Z,85.29
2023-01-17T23:36:04.378Z,84.98
2023-01-17T23:38:47.132Z,85.06
2023-01-17T23:42:07.871Z,85.31
2023-01-17T23:44:46.412Z,85.53
2023-01-17T23:48:02.394Z,85.11
2023-01-17T23:50:55.379Z,84.88
2023-01-17T23:54:18.705Z,84.46
2023-01-17T23:57:29.920Z,84.07
